Time;durP1;ratioP1;P1;durP2;ratioP2;P2;SDS_P1;SDS_P2;PMS_P1;PMS_P2;Temp;Humidity;BMP_temperature;BMP_pressure;BME280_temperature;BME280_humidity;BME280_pressure;Samples;Min_cycle;Max_cycle;Signal;HPM_P1;HPM_P2
2022/08/15 00:00:40;;;;;;;4.93;2.70;;;;;;;22.97;59.96;98999.56;5034375;28;20029;-76
2022/08/15 00:03:20;;;;;;;6.15;3.17;;;;;;;22.91;60.11;98999.34;5033962;28;20030;-76
2022/08/15 00:05:45;;;;;;;5.38;2.92;;;;;;;22.86;60.65;98994.34;5033769;28;20033;-76
2022/08/15 00:08:11;;;;;;;5.70;2.97;;;;;;;22.77;61.16;98996.97;5034006;28;20030;-76
2022/08/15 00:10:37;;;;;;;4.70;2.63;;;;;;;22.75;60.68;98997.44;5033927;28;20041;-76
2022/08/15 00:13:29;;;;;;;5.00;2.85;;;;;;;22.79;60.73;98995.31;5033951;28;20091;-76
2022/08/15 00:15:56;;;;;;;5.45;3.15;;;;;;;22.72;60.97;98995.53;5030667;28;20380;-77
2022/08/15 00:18:24;;;;;;;5.20;2.72;;;;;;;22.68;61.56;99000.44;5033781;28;20025;-76
2022/08/15 00:20:50;;;;;;;4.85;2.72;;;;;;;22.65;61.11;99000.53;5033583;28;20052;-76
2022/08/15 00:23:18;;;;;;;5.32;2.90;;;;;;;22.56;61.62;99003.19;5033412;28;20036;-76
2022/08/15 00:25:49;;;;;;;4.57;2.67;;;;;;;22.49;62.08;98998.63;5033757;28;20037;-77
2022/08/15 00:28:16;;;;;;;5.43;2.92;;;;;;;22.44;60.24;98985.31;5033519;28;20061;-76
2022/08/15 00:30:43;;;;;;;5.10;2.75;;;;;;;22.48;60.05;98992.28;5033219;28;20076;-77
2022/08/15 00:33:09;;;;;;;4.72;2.67;;;;;;;22.56;59.17;98997.66;5033731;28;20147;-77
2022/08/15 00:35:37;;;;;;;6.03;2.78;;;;;;;22.42;61.21;99001.63;5033320;28;20029;-77
2022/08/15 00:38:13;;;;;;;5.22;2.70;;;;;;;22.47;61.33;99004.59;5015619;28;20034;-78
2022/08/15 00:43:42;;;;;;;5.20;2.60;;;;;;;22.52;58.88;99003.31;5033111;28;20032;-78
2022/08/15 00:46:10;;;;;;;5.25;2.67;;;;;;;22.31;58.88;99007.47;5015482;28;20142;-77
2022/08/15 00:48:41;;;;;;;5.38;2.80;;;;;;;22.29;58.61;99007.13;5015455;28;20025;-78
2022/08/15 00:51:22;;;;;;;6.13;2.60;;;;;;;22.33;56.65;98996.72;5033144;28;20061;-78
2022/08/15 00:54:23;;;;;;;5.18;2.47;;;;;;;22.49;54.34;98985.53;5015431;28;20133;-77
2022/08/15 00:57:11;;;;;;;5.15;2.58;;;;;;;22.69;53.51;98992.88;5007449;28;20376;-77
2022/08/15 00:59:47;;;;;;;4.00;2.20;;;;;;;22.73;52.70;99001.88;5014328;28;20463;-78
2022/08/15 01:02:17;;;;;;;5.47;2.53;;;;;;;22.86;51.80;99005.47;5033014;28;20427;-77
2022/08/15 01:04:43;;;;;;;6.55;2.33;;;;;;;22.94;50.96;98995.66;5032848;28;20502;-77
2022/08/15 01:07:10;;;;;;;5.35;2.50;;;;;;;23.03;50.04;98993.00;5032808;28;20033;-76
2022/08/15 01:09:36;;;;;;;4.30;2.30;;;;;;;23.11;49.64;99001.88;5032469;28;20380;-77
2022/08/15 01:12:07;;;;;;;4.35;2.38;;;;;;;23.16;49.38;98995.75;5033095;28;20033;-77
2022/08/15 01:14:35;;;;;;;4.07;2.08;;;;;;;23.19;48.66;99003.22;5032660;28;20037;-77
2022/08/15 01:17:01;;;;;;;5.05;2.33;;;;;;;23.23;48.30;99003.09;5032440;28;20065;-77
2022/08/15 01:19:54;;;;;;;4.60;2.10;;;;;;;23.30;47.85;98998.06;5032650;28;20524;-77
2022/08/15 01:22:32;;;;;;;4.60;2.47;;;;;;;23.28;47.96;98997.72;5029378;28;20038;-76
2022/08/15 01:25:06;;;;;;;4.72;2.25;;;;;;;23.22;48.00;98999.53;5032479;28;20029;-76
2022/08/15 01:27:37;;;;;;;4.10;2.10;;;;;;;23.24;48.29;99001.84;5032265;28;20037;-77
2022/08/15 01:30:08;;;;;;;4.13;2.20;;;;;;;23.20;48.27;98995.66;5032216;28;20029;-77
2022/08/15 01:32:34;;;;;;;4.78;2.13;;;;;;;23.21;48.32;98997.19;5032122;28;20353;-76
2022/08/15 01:35:03;;;;;;;4.60;2.40;;;;;;;23.20;48.06;98998.44;5032456;28;20077;-76
2022/08/15 01:37:28;;;;;;;4.95;2.40;;;;;;;23.17;48.00;98988.97;5032371;28;20037;-76
2022/08/15 01:40:02;;;;;;;6.93;2.90;;;;;;;23.14;47.86;98994.66;5032310;28;20025;-76
2022/08/15 01:42:41;;;;;;;4.45;2.40;;;;;;;23.09;48.13;98990.44;5031199;28;20025;-78
2022/08/15 01:45:16;;;;;;;4.78;2.80;;;;;;;23.05;48.36;98996.09;5032313;28;20479;-77
2022/08/15 01:48:00;;;;;;;5.82;2.70;;;;;;;22.96;48.68;98996.00;5032183;28;20386;-78
2022/08/15 01:50:39;;;;;;;6.40;2.45;;;;;;;22.90;48.91;98997.78;5032531;28;20025;-78
2022/08/15 01:53:17;;;;;;;5.45;2.30;;;;;;;22.82;49.14;98996.44;5032244;28;20029;-77
2022/08/15 01:56:09;;;;;;;4.20;2.30;;;;;;;22.78;49.28;98996.53;5031866;28;20041;-77
2022/08/15 01:58:39;;;;;;;4.60;2.33;;;;;;;22.68;49.39;98997.66;5032239;28;20483;-78
2022/08/15 02:01:09;;;;;;;5.32;2.35;;;;;;;22.61;49.30;98994.31;5032041;28;20057;-77
2022/08/15 02:03:38;;;;;;;4.13;2.35;;;;;;;22.56;49.68;98997.66;5032064;28;20037;-78
2022/08/15 02:06:09;;;;;;;8.57;3.70;;;;;;;22.54;49.57;99000.09;5032100;28;20439;-78
2022/08/15 02:08:34;;;;;;;4.80;2.20;;;;;;;22.50;49.72;99003.72;5032107;28;20022;-77
2022/08/15 02:10:59;;;;;;;4.47;2.20;;;;;;;22.49;49.35;99004.16;5031909;28;20056;-77
2022/08/15 02:13:26;;;;;;;3.83;2.00;;;;;;;22.47;49.54;99001.84;5032027;28;20045;-79
2022/08/15 02:15:52;;;;;;;4.38;2.40;;;;;;;22.44;49.46;99002.72;5031994;28;20125;-77
2022/08/15 02:18:17;;;;;;;4.13;2.03;;;;;;;22.39;49.40;99000.50;5031965;28;20103;-77
2022/08/15 02:20:43;;;;;;;4.13;2.20;;;;;;;22.39;49.43;98999.72;5031618;28;20045;-78
2022/08/15 02:23:08;;;;;;;4.07;2.10;;;;;;;22.37;49.37;99002.19;5032145;28;20388;-79
2022/08/15 02:25:35;;;;;;;6.88;2.20;;;;;;;22.32;49.65;98995.16;5032069;28;20052;-80
2022/08/15 02:28:01;;;;;;;4.78;2.13;;;;;;;22.30;49.59;98992.06;5031937;28;20036;-80
2022/08/15 02:30:30;;;;;;;4.57;1.73;;;;;;;22.30;49.39;98997.59;5031907;28;20026;-79
2022/08/15 02:32:56;;;;;;;5.28;2.15;;;;;;;22.31;49.41;98992.81;5031595;28;20036;-79
2022/08/15 02:35:21;;;;;;;3.53;1.80;;;;;;;22.28;49.44;98988.16;5031891;28;20029;-78
2022/08/15 02:37:47;;;;;;;4.57;2.10;;;;;;;22.25;49.60;98994.59;5014143;28;20061;-79
2022/08/15 02:40:15;;;;;;;5.47;2.20;;;;;;;22.21;49.67;98995.47;5032253;28;20042;-78
2022/08/15 02:42:42;;;;;;;4.80;2.08;;;;;;;22.20;49.67;98993.16;5032260;28;20413;-79
2022/08/15 02:45:12;;;;;;;4.75;2.00;;;;;;;22.19;49.96;98994.38;5032411;28;20456;-79
2022/08/15 02:47:41;;;;;;;3.30;1.92;;;;;;;22.18;49.82;98984.50;5031760;28;20026;-80
2022/08/15 02:50:08;;;;;;;5.32;1.92;;;;;;;22.19;50.02;98983.28;5014249;28;20451;-78
2022/08/15 02:52:39;;;;;;;5.15;2.15;;;;;;;22.14;49.99;98992.91;5032407;28;20041;-78
2022/08/15 02:55:06;;;;;;;3.75;1.65;;;;;;;22.10;50.19;98988.69;5035475;28;20025;-79
2022/08/15 02:57:33;;;;;;;3.75;1.70;;;;;;;22.05;50.40;98992.00;5035534;28;20375;-79
2022/08/15 02:59:59;;;;;;;4.63;1.70;;;;;;;22.02;50.68;98988.09;5035577;28;20061;-79
2022/08/15 03:02:25;;;;;;;3.92;1.73;;;;;;;21.99;50.65;98988.94;5035206;28;20472;-80
2022/08/15 03:04:50;;;;;;;3.97;1.88;;;;;;;21.92;50.87;98989.94;5035597;28;20457;-80
2022/08/15 03:07:16;;;;;;;5.65;1.73;;;;;;;21.99;50.83;98988.94;5036011;28;20077;-80
2022/08/15 03:09:41;;;;;;;4.55;1.80;;;;;;;;;;5036459;28;20041;-78
2022/08/15 03:12:07;;;;;;;3.72;1.77;;;;;;;21.86;51.35;98985.38;5037177;28;20051;-78
2022/08/15 03:14:36;;;;;;;4.35;1.85;;;;;;;21.84;51.37;98977.50;5036301;28;20479;-77
2022/08/15 03:17:03;;;;;;;3.53;1.92;;;;;;;21.82;51.60;98977.13;5035444;28;20423;-78
2022/08/15 03:19:29;;;;;;;4.20;1.90;;;;;;;21.82;51.52;98979.91;5035349;28;20068;-79
2022/08/15 03:21:54;;;;;;;4.88;2.13;;;;;;;21.80;51.65;98987.13;5034640;28;20065;-79
2022/08/15 03:24:22;;;;;;;4.88;2.53;;;;;;;21.78;51.72;98984.78;5016852;28;20036;-78
2022/08/15 03:26:48;;;;;;;4.30;1.60;;;;;;;21.79;51.80;98988.31;5034919;28;20099;-79
2022/08/15 03:29:19;;;;;;;3.53;1.65;;;;;;;21.77;51.71;98982.44;5035882;28;20033;-79
2022/08/15 03:31:48;;;;;;;4.97;1.70;;;;;;;21.74;51.93;98977.78;5037133;28;20036;-79
2022/08/15 03:34:16;;;;;;;3.28;1.70;;;;;;;21.77;52.05;98982.44;5035885;28;20033;-79
2022/08/15 03:36:45;;;;;;;5.35;1.70;;;;;;;21.78;51.96;98989.53;5036029;28;20041;-78
2022/08/15 03:39:10;;;;;;;4.53;1.80;;;;;;;21.76;52.22;98984.44;5035175;28;20041;-78
2022/08/15 03:41:36;;;;;;;4.65;1.52;;;;;;;21.75;52.14;98990.44;5035153;28;20455;-78
2022/08/15 03:44:02;;;;;;;2.80;1.30;;;;;;;21.75;52.21;98988.44;5034544;28;20052;-79
2022/08/15 03:46:27;;;;;;;3.10;1.60;;;;;;;21.86;52.10;98986.16;5034208;28;20029;-79
2022/08/15 03:48:56;;;;;;;3.80;1.80;;;;;;;21.81;52.06;98986.66;5034640;28;20425;-78
2022/08/15 03:51:22;;;;;;;3.65;1.90;;;;;;;21.77;52.28;98982.44;5034530;28;20042;-78
2022/08/15 03:53:54;;;;;;;6.05;1.60;;;;;;;21.75;52.30;98982.88;5034628;28;20295;-77
2022/08/15 03:56:28;;;;;;;5.30;1.90;;;;;;;21.80;52.32;98978.81;5034458;28;20029;-77
2022/08/15 03:58:55;;;;;;;3.90;1.55;;;;;;;21.80;51.98;98984.34;5034245;28;20026;-78
2022/08/15 04:01:25;;;;;;;3.83;1.40;;;;;;;21.77;52.30;98977.69;5033834;28;20029;-78
2022/08/15 04:03:51;;;;;;;4.30;1.77;;;;;;;21.75;52.32;98979.34;5033780;28;20033;-77
2022/08/15 04:06:19;;;;;;;3.58;1.73;;;;;;;21.76;52.39;98986.44;5033369;28;20037;-77
2022/08/15 04:08:47;;;;;;;5.28;1.80;;;;;;;21.75;52.48;98980.13;5033927;28;20040;-79
2022/08/15 04:11:14;;;;;;;2.75;1.30;;;;;;;21.73;52.61;98979.78;5016174;28;20037;-77
2022/08/15 04:13:40;;;;;;;3.40;1.50;;;;;;;21.71;52.85;98982.22;5033756;28;20079;-78
2022/08/15 04:16:07;;;;;;;4.40;1.50;;;;;;;21.73;52.84;98987.31;5015883;28;20443;-78
2022/08/15 04:18:34;;;;;;;3.70;1.80;;;;;;;21.75;52.74;98984.88;5033654;28;20372;-79
2022/08/15 04:21:06;;;;;;;4.07;1.75;;;;;;;21.75;52.80;98987.66;5033388;28;20057;-78
2022/08/15 04:23:32;;;;;;;4.25;1.70;;;;;;;21.73;52.78;98984.53;5033915;28;20333;-78
2022/08/15 04:25:58;;;;;;;3.55;1.45;;;;;;;21.70;53.12;98988.19;5033840;28;20029;-78
2022/08/15 04:28:26;;;;;;;4.80;1.52;;;;;;;21.69;53.39;98992.97;5033362;28;20059;-78
2022/08/15 04:30:52;;;;;;;3.13;1.40;;;;;;;21.71;53.37;98998.06;5033660;28;20155;-79
2022/08/15 04:33:30;;;;;;;3.78;1.63;;;;;;;21.69;53.50;98992.19;5033615;28;20084;-79
2022/08/15 04:36:01;;;;;;;3.33;1.60;;;;;;;21.69;53.59;98992.97;5033456;28;20037;-79
2022/08/15 04:38:27;;;;;;;4.88;2.00;;;;;;;21.70;53.56;98988.97;5015695;28;20041;-81
2022/08/15 04:40:54;;;;;;;3.67;1.27;;;;;;;21.73;53.44;98996.41;5033681;28;20033;-81
2022/08/15 04:43:21;;;;;;;12.55;2.03;;;;;;;21.76;53.45;98997.53;5033577;28;20091;-82
2022/08/15 04:45:47;;;;;;;5.68;1.60;;;;;;;21.79;53.59;98991.09;5033697;28;20030;-83
2022/08/15 04:48:14;;;;;;;4.72;1.90;;;;;;;21.78;53.74;98976.47;5033070;28;20490;-82
2022/08/15 04:50:41;;;;;;;4.78;1.50;;;;;;;21.83;53.55;98970.38;5033668;28;20534;-81
2022/08/15 04:53:07;;;;;;;3.20;1.38;;;;;;;22.11;52.93;98979.94;5033163;28;20102;-81
2022/08/15 04:55:35;;;;;;;4.95;1.67;;;;;;;21.98;53.14;98987.41;5033810;28;20407;-81
2022/08/15 04:58:00;;;;;;;4.18;1.80;;;;;;;21.93;53.43;98985.16;5017898;28;20095;-83
2022/08/15 05:00:28;;;;;;;4.47;1.83;;;;;;;21.90;53.29;99000.69;5451246;23;20054;-83
2022/08/15 05:03:05;;;;;;;4.75;1.52;;;;;;;21.99;53.23;99000.03;5056043;28;20026;-82
2022/08/15 05:05:37;;;;;;;3.42;1.58;;;;;;;21.90;53.39;98992.38;5353861;23;20052;-81
2022/08/15 05:08:02;;;;;;;4.43;2.13;;;;;;;21.97;52.84;98990.59;5051155;28;20116;-81
2022/08/15 05:10:28;;;;;;;4.60;2.33;;;;;;;22.00;53.15;98986.94;5062096;23;20037;-75
2022/08/15 05:12:54;;;;;;;4.15;1.70;;;;;;;22.05;53.01;98992.00;5069600;23;20057;-76
2022/08/15 05:15:20;;;;;;;5.43;2.22;;;;;;;22.04;53.24;98990.41;5150448;23;20045;-84
2022/08/15 05:17:47;;;;;;;4.05;1.95;;;;;;;21.96;53.63;98995.38;5133476;23;20056;-82
2022/08/15 05:20:14;;;;;;;3.88;1.70;;;;;;;21.86;53.93;98988.94;5281551;23;20037;-82
2022/08/15 05:25:17;;;;;;;3.40;1.45;;;;;;;21.74;54.64;98984.09;5313004;23;20052;-84
2022/08/15 05:27:43;;;;;;;3.13;1.38;;;;;;;21.78;54.54;98992.31;5191917;23;20057;-81
2022/08/15 05:32:43;;;;;;;5.03;1.77;;;;;;;21.75;54.81;98982.88;5340915;23;20060;-81
2022/08/15 05:35:10;;;;;;;3.80;1.77;;;;;;;21.77;54.54;98983.22;5513684;23;20105;-75
2022/08/15 05:37:36;;;;;;;3.67;1.50;;;;;;;21.73;54.97;98987.31;5262728;23;20061;-86
2022/08/15 05:40:03;;;;;;;4.78;1.55;;;;;;;21.65;55.30;98986.72;5081973;23;20144;-85
2022/08/15 05:45:33;;;;;;;3.50;1.60;;;;;;;21.74;55.20;98995.19;5500094;23;20028;-81
2022/08/15 05:48:07;;;;;;;3.13;1.40;;;;;;;21.82;55.57;98995.75;5417766;23;20051;-81
2022/08/15 05:50:41;;;;;;;5.35;1.58;;;;;;;21.79;55.27;99007.72;5207590;23;20050;-76
2022/08/15 05:55:54;;;;;;;3.75;1.20;;;;;;;21.67;55.64;99005.66;5878116;23;20226;-83
2022/08/15 05:58:42;;;;;;;3.38;1.60;;;;;;;21.67;55.80;99005.66;5467376;23;20034;-83
2022/08/15 06:01:35;;;;;;;4.95;1.60;;;;;;;21.75;55.63;99018.91;5849600;23;20057;-75
2022/08/15 06:04:07;;;;;;;4.05;1.50;;;;;;;21.70;55.80;99025.00;5076407;23;20034;-82
2022/08/15 06:11:46;;;;;;;4.88;1.50;;;;;;;21.69;55.75;99040.06;5579750;23;20056;-79
2022/08/15 06:19:29;;;;;;;3.83;1.60;;;;;;;21.80;55.59;99031.44;5591565;23;20433;-89
2022/08/15 06:22:13;;;;;;;4.35;1.52;;;;;;;21.78;55.50;99033.88;5109695;23;20199;-92
2022/08/15 06:25:12;;;;;;;4.50;1.73;;;;;;;21.84;55.62;99034.91;5050412;28;20048;-89
2022/08/15 06:30:19;;;;;;;6.20;1.60;;;;;;;21.82;55.84;99034.56;5225383;23;20061;-86
2022/08/15 06:33:04;;;;;;;7.22;1.52;;;;;;;21.81;55.76;99038.53;5050355;28;20104;-92
2022/08/15 06:35:29;;;;;;;3.90;1.45;;;;;;;21.87;55.75;99040.34;5052568;28;20040;-91
2022/08/15 06:38:21;;;;;;;3.97;1.87;;;;;;;21.88;56.15;99036.38;5034851;28;20176;-87
2022/08/15 06:41:18;;;;;;;3.20;1.42;;;;;;;21.92;56.00;99047.34;5294347;23;20264;-82
2022/08/15 06:43:45;;;;;;;4.53;1.63;;;;;;;21.86;56.07;99044.34;5116372;23;20061;-85
2022/08/15 06:46:10;;;;;;;3.20;1.40;;;;;;;21.90;56.21;99050.56;5648508;23;20021;-75
2022/08/15 06:48:39;;;;;;;3.22;1.30;;;;;;;21.86;56.13;99055.44;5373500;23;20044;-86
2022/08/15 06:51:07;;;;;;;3.83;1.52;;;;;;;21.98;56.11;99055.91;5047931;28;20030;-89
2022/08/15 06:53:38;;;;;;;3.05;1.13;;;;;;;21.93;56.40;99060.00;5047967;28;20033;-89
2022/08/15 06:56:17;;;;;;;3.30;1.40;;;;;;;21.93;56.31;99060.00;5042123;28;20029;-91
2022/08/15 06:59:16;;;;;;;4.38;1.40;;;;;;;22.03;55.99;99058.94;5025343;28;20098;-78
2022/08/15 07:01:58;;;;;;;2.95;1.20;;;;;;;22.05;56.24;99064.06;5034693;28;20060;-78
2022/08/15 07:04:39;;;;;;;5.45;1.38;;;;;;;22.11;56.06;99054.00;5015711;28;20041;-78
2022/08/15 07:07:17;;;;;;;3.25;1.38;;;;;;;22.22;55.73;99057.25;5016631;28;20033;-78
2022/08/15 07:10:07;;;;;;;3.78;1.38;;;;;;;22.16;55.93;99059.00;5034680;28;20039;-79
2022/08/15 07:13:05;;;;;;;4.38;1.70;;;;;;;22.16;55.98;99064.53;5016760;28;20036;-79
2022/08/15 07:15:46;;;;;;;4.50;1.40;;;;;;;22.15;56.04;99074.06;5032305;28;20049;-79
2022/08/15 07:18:26;;;;;;;3.95;1.25;;;;;;;22.17;55.96;99072.44;5016766;28;20052;-79
2022/08/15 07:21:02;;;;;;;4.32;1.92;;;;;;;22.11;56.27;99068.63;5016648;28;20033;-79
2022/08/15 07:23:30;;;;;;;2.88;1.15;;;;;;;21.97;56.68;99070.97;5016845;28;20030;-79
2022/08/15 07:26:02;;;;;;;4.25;1.33;;;;;;;22.02;56.60;99081.56;5034300;28;20037;-78
2022/08/15 07:28:30;;;;;;;3.63;1.63;;;;;;;22.13;56.29;99082.06;5034558;28;20052;-79
2022/08/15 07:30:59;;;;;;;3.70;1.17;;;;;;;22.00;56.74;99079.19;5034277;28;20029;-79
2022/08/15 07:33:40;;;;;;;4.88;1.30;;;;;;;22.01;56.92;99077.22;5033914;28;20029;-79
2022/08/15 07:36:20;;;;;;;4.68;2.00;;;;;;;22.03;57.23;99074.78;5034319;28;20025;-79
2022/08/15 07:38:46;;;;;;;3.33;1.30;;;;;;;22.01;57.17;99075.22;5033996;28;20244;-79
2022/08/15 07:41:27;;;;;;;3.05;1.30;;;;;;;22.04;57.57;99071.56;5033264;28;20128;-78
2022/08/15 07:44:14;;;;;;;4.45;1.35;;;;;;;22.06;57.82;99071.16;5009392;28;20052;-79
2022/08/15 07:46:44;;;;;;;4.05;1.75;;;;;;;22.03;57.76;99075.56;5034379;28;20041;-79
2022/08/15 07:49:17;;;;;;;4.57;1.48;;;;;;;22.06;57.89;99073.94;5034261;28;20057;-79
2022/08/15 07:51:48;;;;;;;3.03;1.48;;;;;;;22.10;57.85;99072.63;5033838;28;20041;-79
2022/08/15 07:54:27;;;;;;;3.70;1.33;;;;;;;22.13;58.07;99080.06;5015817;28;20032;-79
2022/08/15 07:56:58;;;;;;;5.05;1.60;;;;;;;22.18;57.78;99082.31;5033648;28;20105;-78
2022/08/15 07:59:33;;;;;;;3.47;1.70;;;;;;;22.18;57.93;99078.75;5033926;28;20033;-79
2022/08/15 08:02:32;;;;;;;3.33;1.55;;;;;;;22.25;57.76;99084.09;5034224;28;20029;-79
2022/08/15 08:05:00;;;;;;;3.85;1.55;;;;;;;22.26;57.96;99085.66;5033162;28;20041;-79
2022/08/15 08:07:35;;;;;;;3.65;1.73;;;;;;;22.37;57.53;99086.16;5015752;28;20021;-79
2022/08/15 08:10:00;;;;;;;4.65;2.03;;;;;;;22.48;57.58;99085.81;5034262;28;20502;-79
2022/08/15 08:12:37;;;;;;;6.57;2.10;;;;;;;22.58;57.46;99086.75;5033521;28;20033;-79
2022/08/15 08:15:10;;;;;;;4.10;1.70;;;;;;;22.55;57.48;99076.53;5033695;28;20110;-79
2022/08/15 08:17:52;;;;;;;4.50;1.90;;;;;;;22.62;57.53;99079.09;5033726;28;20030;-79
2022/08/15 08:20:29;;;;;;;5.18;1.73;;;;;;;22.59;57.82;99083.53;5034184;28;20061;-79
2022/08/15 08:23:09;;;;;;;4.75;1.75;;;;;;;22.69;57.42;99090.00;5016136;28;20044;-79
2022/08/15 08:25:57;;;;;;;5.68;1.60;;;;;;;22.69;57.48;99093.53;5033792;28;20036;-79
2022/08/15 08:28:29;;;;;;;3.58;1.60;;;;;;;22.72;57.73;99091.88;5033096;28;20038;-78
2022/08/15 08:31:02;;;;;;;3.97;1.50;;;;;;;22.78;57.71;99081.78;5033203;28;20021;-79
2022/08/15 08:33:50;;;;;;;4.00;1.30;;;;;;;22.77;57.50;99085.78;5015336;28;20484;-79
2022/08/15 08:36:29;;;;;;;3.13;1.40;;;;;;;22.79;57.44;99094.44;5033424;28;20112;-79
2022/08/15 08:39:22;;;;;;;3.45;1.20;;;;;;;22.69;58.10;99095.53;5033559;28;20033;-79
2022/08/15 08:42:15;;;;;;;3.92;1.65;;;;;;;22.67;57.68;99100.72;5032854;28;20414;-78
2022/08/15 08:44:52;;;;;;;3.58;1.63;;;;;;;22.79;57.31;99094.44;5032885;28;20051;-79
2022/08/15 08:47:43;;;;;;;6.95;1.67;;;;;;;22.76;57.63;99101.66;5033098;28;20424;-75
2022/08/15 08:50:24;;;;;;;4.13;1.85;;;;;;;22.79;57.37;99100.75;5023633;28;20050;-78
2022/08/15 08:53:05;;;;;;;7.88;1.80;;;;;;;22.86;57.55;99105.38;5032823;28;20443;-77
2022/08/15 08:55:47;;;;;;;3.90;1.70;;;;;;;22.86;57.55;99099.03;5014919;28;20128;-77
2022/08/15 08:58:18;;;;;;;4.32;1.60;;;;;;;22.85;57.11;99094.72;5032791;28;20064;-78
2022/08/15 09:00:50;;;;;;;3.63;1.42;;;;;;;22.91;57.47;99092.94;5032564;28;20044;-77
2022/08/15 09:03:26;;;;;;;3.58;1.27;;;;;;;22.96;57.66;99093.16;5032489;28;20036;-77
2022/08/15 09:05:55;;;;;;;4.18;2.22;;;;;;;23.00;57.59;99093.81;5007310;28;20025;-77
2022/08/15 09:08:32;;;;;;;3.20;1.58;;;;;;;23.06;57.70;99097.59;5032462;28;20049;-77
2022/08/15 09:11:03;;;;;;;2.97;1.48;;;;;;;23.15;57.60;99096.94;5032748;28;20025;-77
2022/08/15 09:13:35;;;;;;;5.28;1.60;;;;;;;23.16;57.14;99094.94;5032580;28;20053;-78
2022/08/15 09:16:10;;;;;;;3.13;1.45;;;;;;;23.20;57.25;99106.72;5032688;28;20025;-78
2022/08/15 09:19:16;;;;;;;4.97;1.55;;;;;;;23.28;56.29;99102.47;5032651;28;20053;-77
2022/08/15 09:21:43;;;;;;;3.70;1.60;;;;;;;23.34;56.65;99101.47;5013338;28;20045;-78
2022/08/15 09:24:10;;;;;;;3.42;1.42;;;;;;;23.49;56.20;99112.91;5032258;28;20033;-79
2022/08/15 09:26:51;;;;;;;3.22;1.50;;;;;;;23.45;56.36;99098.34;5014661;28;20044;-77
2022/08/15 09:29:30;;;;;;;3.85;1.40;;;;;;;23.41;56.56;99089.38;5032646;28;20037;-77
2022/08/15 09:32:13;;;;;;;5.13;1.70;;;;;;;23.44;56.50;99091.25;5032311;28;20104;-77
2022/08/15 09:34:56;;;;;;;3.28;1.65;;;;;;;23.41;56.81;99095.69;5032223;28;20034;-78
2022/08/15 09:37:58;;;;;;;4.63;2.03;;;;;;;23.31;57.06;99096.03;5032839;28;20037;-78
2022/08/15 09:41:08;;;;;;;3.25;1.45;;;;;;;23.29;57.31;99093.69;5013952;28;20033;-78
2022/08/15 09:44:27;;;;;;;3.92;1.80;;;;;;;23.33;57.73;99088.03;5004832;28;20096;-78
2022/08/15 09:47:40;;;;;;;4.85;2.10;;;;;;;23.29;57.80;99096.47;4936088;29;20125;-77
2022/08/15 09:50:31;;;;;;;4.13;1.70;;;;;;;23.26;57.62;99091.03;5013235;28;20046;-78
2022/08/15 09:53:10;;;;;;;3.35;1.60;;;;;;;23.21;58.34;99088.84;5032059;28;20057;-78
2022/08/15 09:55:44;;;;;;;3.63;1.80;;;;;;;23.37;57.88;99085.94;5032463;28;20068;-79
2022/08/15 09:58:25;;;;;;;5.38;1.50;;;;;;;23.38;58.12;99084.72;5032844;28;20025;-78
2022/08/15 10:01:08;;;;;;;3.55;1.70;;;;;;;23.45;58.39;99089.25;5014716;28;20029;-79
2022/08/15 10:03:43;;;;;;;4.85;2.13;;;;;;;23.46;58.37;99085.25;5034627;28;20117;-76
2022/08/15 10:06:13;;;;;;;5.68;2.05;;;;;;;23.50;58.19;99083.13;5036479;28;20046;-80
2022/08/15 10:08:51;;;;;;;4.40;1.90;;;;;;;23.43;58.44;99084.13;5036379;28;20030;-78
2022/08/15 10:11:30;;;;;;;3.53;1.58;;;;;;;23.37;58.67;99078.38;5036385;28;20082;-77
2022/08/15 10:14:05;;;;;;;3.78;1.73;;;;;;;23.38;58.72;99081.94;5036207;28;20113;-77
2022/08/15 10:16:36;;;;;;;3.72;1.52;;;;;;;23.37;58.63;99088.72;5035964;28;20376;-78
2022/08/15 10:19:09;;;;;;;3.88;1.73;;;;;;;23.43;58.49;99084.13;5035764;28;20029;-77
2022/08/15 10:21:37;;;;;;;4.40;2.08;;;;;;;23.48;58.67;99091.13;5018074;28;20479;-76
2022/08/15 10:24:20;;;;;;;4.38;2.00;;;;;;;23.54;58.91;99092.91;5035989;28;20135;-77
2022/08/15 10:27:17;;;;;;;4.38;1.70;;;;;;;23.63;58.58;99095.81;5018088;28;20026;-77
2022/08/15 10:29:47;;;;;;;4.27;2.07;;;;;;;23.70;57.92;99092.03;5035829;28;20187;-77
2022/08/15 10:32:40;;;;;;;4.07;1.80;;;;;;;23.75;58.39;99090.66;5035719;28;20742;-79
2022/08/15 10:35:16;;;;;;;4.18;1.83;;;;;;;23.70;57.93;99098.34;5035836;28;20068;-78
2022/08/15 10:38:02;;;;;;;3.70;1.65;;;;;;;23.62;58.34;99101.81;5035767;28;20048;-77
2022/08/15 10:40:42;;;;;;;7.38;2.35;;;;;;;23.56;58.70;99103.56;5017959;28;20118;-77
2022/08/15 10:43:26;;;;;;;3.78;1.83;;;;;;;23.60;58.94;99102.25;5035556;28;20030;-78
2022/08/15 10:46:11;;;;;;;3.67;1.70;;;;;;;23.65;58.77;99104.47;5035567;28;20060;-78
2022/08/15 10:48:57;;;;;;;3.63;1.60;;;;;;;23.62;59.11;99104.59;5035668;28;20123;-77
2022/08/15 10:51:46;;;;;;;4.35;2.20;;;;;;;23.60;58.78;99113.38;5035627;28;20041;-78
2022/08/15 10:54:22;;;;;;;5.15;2.20;;;;;;;23.37;59.32;99108.16;5017669;28;20060;-77
2022/08/15 10:56:54;;;;;;;4.50;1.83;;;;;;;23.36;59.31;99114.94;5035856;28;20234;-78
2022/08/15 10:59:23;;;;;;;4.22;1.77;;;;;;;23.41;59.73;99129.03;5035294;28;20261;-79
2022/08/15 11:01:51;;;;;;;4.05;1.98;;;;;;;23.35;59.86;99125.28;5037125;28;20770;-77
2022/08/15 11:04:35;;;;;;;4.47;1.90;;;;;;;23.30;60.10;99133.38;5035124;28;20029;-77
2022/08/15 11:07:15;;;;;;;3.95;1.92;;;;;;;23.31;59.69;99134.91;5035291;28;20108;-79
2022/08/15 11:09:41;;;;;;;3.78;2.03;;;;;;;23.41;59.77;99129.03;5035365;28;20077;-77
2022/08/15 11:12:07;;;;;;;6.45;2.10;;;;;;;23.45;60.27;99134.47;5034970;28;20041;-77
2022/08/15 11:14:43;;;;;;;4.00;1.90;;;;;;;23.39;60.08;99139.81;5034748;28;20491;-79
2022/08/15 11:17:22;;;;;;;5.63;2.75;;;;;;;23.39;60.13;99141.81;5035777;28;20029;-78
2022/08/15 11:20:22;;;;;;;4.68;1.92;;;;;;;23.34;60.66;99150.69;5035684;28;20048;-80
2022/08/15 11:22:58;;;;;;;7.88;2.78;;;;;;;23.22;60.52;99152.25;4993525;28;20132;-80
2022/08/15 11:25:33;;;;;;;4.05;1.90;;;;;;;23.24;60.62;99152.59;5017280;28;20036;-79
2022/08/15 11:28:03;;;;;;;5.93;2.15;;;;;;;23.22;60.95;99157.81;5034900;28;20086;-79
2022/08/15 11:30:33;;;;;;;8.40;3.15;;;;;;;23.40;60.89;99160.03;5034985;28;20048;-79
2022/08/15 11:33:22;;;;;;;7.22;2.40;;;;;;;23.57;60.59;99157.94;5035960;28;20386;-79
2022/08/15 11:35:49;;;;;;;5.85;2.33;;;;;;;23.41;60.75;99167.94;5035143;28;20056;-79
2022/08/15 11:38:16;;;;;;;4.53;2.00;;;;;;;23.40;60.80;99171.16;5034689;28;20483;-80
2022/08/15 11:40:48;;;;;;;6.63;2.63;;;;;;;23.40;60.81;99163.59;5034941;28;20061;-79
2022/08/15 11:43:16;;;;;;;5.53;2.17;;;;;;;23.39;61.26;99172.38;5034710;28;20033;-79
2022/08/15 11:45:48;;;;;;;4.25;2.05;;;;;;;23.70;60.36;99165.06;5034850;28;20044;-80
2022/08/15 11:48:22;;;;;;;4.85;1.95;;;;;;;23.74;59.69;99167.72;5016858;28;20083;-81
2022/08/15 11:51:14;;;;;;;5.13;2.53;;;;;;;23.21;61.37;99174.91;5028200;28;20142;-81
2022/08/15 11:54:04;;;;;;;7.00;2.20;;;;;;;23.30;61.22;99167.47;5034557;28;20033;-80
2022/08/15 11:56:48;;;;;;;4.93;1.85;;;;;;;23.46;61.63;99174.13;5035803;28;20033;-79
2022/08/15 11:59:55;;;;;;;6.35;2.50;;;;;;;23.27;61.68;99165.59;5035829;28;20356;-79
2022/08/15 12:02:20;;;;;;;4.53;2.30;;;;;;;23.28;61.46;99183.03;5035026;28;20044;-78
2022/08/15 12:04:48;;;;;;;6.17;2.40;;;;;;;23.33;61.14;99171.34;5016280;28;20034;-78
2022/08/15 12:07:20;;;;;;;5.43;2.22;;;;;;;23.35;61.30;99175.25;5033906;28;20741;-78
2022/08/15 12:10:06;;;;;;;5.35;2.67;;;;;;;23.41;61.84;99167.94;5034027;28;20472;-78
2022/08/15 12:12:38;;;;;;;;;;;;;;;23.47;61.14;99170.13;5034353;28;20589;-76
2022/08/15 12:15:03;;;;;;;6.45;2.67;;;;;;;23.50;60.63;99169.25;5034033;28;19991;-76
2022/08/15 12:17:30;;;;;;;6.28;2.20;;;;;;;23.32;61.12;99172.56;5033700;28;20153;-79
2022/08/15 12:19:57;;;;;;;4.45;2.10;;;;;;;23.35;61.32;99174.50;5016143;28;20369;-78
2022/08/15 12:22:31;;;;;;;4.85;2.38;;;;;;;23.27;61.45;99178.69;5034361;28;20033;-77
2022/08/15 12:24:56;;;;;;;5.40;2.70;;;;;;;23.23;62.19;99178.03;5033626;28;20030;-78
2022/08/15 12:27:22;;;;;;;4.97;2.45;;;;;;;23.29;61.85;99181.81;5033404;28;20033;-78
2022/08/15 12:29:48;;;;;;;4.80;2.20;;;;;;;23.42;61.56;99179.81;5033941;28;20103;-78
2022/08/15 12:32:13;;;;;;;4.90;2.25;;;;;;;23.44;61.53;99176.59;5033766;28;20080;-78